createdAt,value
2018-03-02T00:01:45.454Z,27.6
2018-03-02T00:04:42.435Z,27.5
2018-03-02T00:07:39.434Z,27.6
2018-03-02T00:13:33.898Z,27.6
2018-03-02T00:25:21.888Z,27.3
2018-03-02T00:28:18.459Z,27.1
2018-03-02T00:31:15.560Z,26.9
2018-03-02T00:40:06.514Z,26.8
2018-03-02T00:46:00.922Z,26.6
2018-03-02T00:48:57.437Z,26.6
2018-03-02T00:51:54.494Z,26.6
2018-03-02T01:12:33.651Z,26.8
2018-03-02T01:15:30.474Z,26.9
2018-03-02T01:24:21.530Z,27
2018-03-02T01:30:15.604Z,27.2
2018-03-02T01:33:12.486Z,27.2
2018-03-02T01:36:09.557Z,27.2
2018-03-02T01:45:00.578Z,27.3
2018-03-02T01:47:57.528Z,27.4
2018-03-02T02:02:43.024Z,27.8
2018-03-02T02:23:22.062Z,28
2018-03-02T02:35:09.667Z,28.6
2018-03-02T02:49:54.706Z,29
2018-03-02T02:52:51.627Z,29
2018-03-02T02:55:48.712Z,29
2018-03-02T02:58:46.149Z,29.1
2018-03-02T03:04:39.765Z,29.5
2018-03-02T03:07:36.629Z,29.5
2018-03-02T03:13:30.853Z,29.7
2018-03-02T03:19:24.733Z,29.9
2018-03-02T03:25:18.729Z,30.1
2018-03-02T03:31:12.741Z,30.2
2018-03-02T03:37:07.185Z,30.5
2018-03-02T03:43:00.772Z,30.6
2018-03-02T03:48:54.941Z,30.6
2018-03-02T03:54:49.191Z,30.9
2018-03-02T03:57:45.723Z,31
2018-03-02T04:12:31.251Z,31.4
2018-03-02T04:15:28.225Z,31.6
2018-03-02T05:02:39.897Z,32.9
2018-03-02T05:08:33.928Z,33
2018-03-02T05:43:58.055Z,33.5
2018-03-02T05:55:45.949Z,33.6
2018-03-02T06:16:25.404Z,33.7
2018-03-02T06:25:16.077Z,33.8
2018-03-02T06:37:04.077Z,33.7
2018-03-02T06:42:58.088Z,33.8
2018-03-02T07:12:28.173Z,34.1
2018-03-02T07:15:25.063Z,34.2
2018-03-02T07:18:22.189Z,34.1
2018-03-02T07:21:19.184Z,34
2018-03-02T07:27:13.103Z,33.7
2018-03-02T07:30:10.063Z,33.7
2018-03-02T07:36:04.097Z,33.6
2018-03-02T07:39:01.072Z,33.8
2018-03-02T07:41:58.135Z,33.8
2018-03-02T07:44:55.506Z,34
2018-03-02T07:47:52.114Z,34
2018-03-02T07:50:49.108Z,34.2
2018-03-02T07:53:46.128Z,34.2
2018-03-02T07:56:43.111Z,34.3
2018-03-02T08:02:37.585Z,34.3
2018-03-02T08:11:28.176Z,34.4
2018-03-02T08:14:25.170Z,34.4
2018-03-02T08:23:16.227Z,34.4
2018-03-02T08:26:13.146Z,34.2
2018-03-02T08:32:07.205Z,33.9
2018-03-02T08:35:04.199Z,34
2018-03-02T08:38:01.207Z,34.1
2018-03-02T08:40:58.156Z,34.1
2018-03-02T08:43:55.333Z,34.2
2018-03-02T08:46:52.652Z,34.1
2018-03-02T08:49:49.248Z,34.1
2018-03-02T08:52:46.220Z,34.1
2018-03-02T08:55:43.250Z,34
2018-03-02T09:01:37.269Z,34
2018-03-02T09:04:34.216Z,33.9
2018-03-02T09:10:28.274Z,33.7
2018-03-02T09:16:22.329Z,33.6
2018-03-02T09:19:19.222Z,33.6
2018-03-02T09:22:16.334Z,33.6
2018-03-02T09:25:13.243Z,33.6
2018-03-02T09:34:04.309Z,33.6
2018-03-02T09:37:01.266Z,33.6
2018-03-02T09:39:58.307Z,33.5
2018-03-02T09:42:55.308Z,33.4
2018-03-02T09:45:52.728Z,33.4
2018-03-02T09:48:49.351Z,33.4
2018-03-02T09:51:46.319Z,33.4
2018-03-02T09:54:43.291Z,33.3
2018-03-02T09:57:40.351Z,33.2
2018-03-02T10:03:34.572Z,33.1
2018-03-02T10:06:31.323Z,33
2018-03-02T10:09:28.361Z,33
2018-03-02T10:15:22.535Z,32.9
2018-03-02T10:21:16.397Z,32.6
2018-03-02T10:24:13.439Z,32.6
2018-03-02T10:27:10.839Z,32.5
2018-03-02T10:33:04.378Z,32.3
2018-03-02T10:36:01.332Z,32.3
2018-03-02T10:38:58.396Z,32.1
2018-03-02T10:41:55.938Z,32.1
2018-03-02T10:44:52.415Z,32
2018-03-02T10:56:40.483Z,31.7
2018-03-02T10:59:37.792Z,31.6
2018-03-02T11:02:34.435Z,31.6
2018-03-02T11:05:31.439Z,31.5
2018-03-02T11:11:25.875Z,31.4
2018-03-02T11:14:22.499Z,31.3
2018-03-02T11:17:19.457Z,31.3
2018-03-02T11:20:16.420Z,31.2
2018-03-02T11:23:13.481Z,31.2
2018-03-02T11:26:10.486Z,31.1
2018-03-02T11:29:07.528Z,31
2018-03-02T11:35:01.897Z,30.9
2018-03-02T11:37:58.457Z,30.9
2018-03-02T11:40:56.032Z,30.8
2018-03-02T11:43:52.516Z,30.8
2018-03-02T11:46:49.504Z,30.7
2018-03-02T11:55:40.524Z,30.6
2018-03-02T12:04:31.555Z,30.4
2018-03-02T12:07:28.492Z,30.5
2018-03-02T12:10:25.575Z,30.4
2018-03-02T12:13:22.511Z,30.4
2018-03-02T12:16:19.547Z,30.3
2018-03-02T12:19:17.035Z,30.3
2018-03-02T12:22:13.550Z,30.2
2018-03-02T12:31:04.538Z,30.2
2018-03-02T12:34:01.541Z,30.1
2018-03-02T12:36:58.598Z,30.1
2018-03-02T12:39:55.544Z,30
2018-03-02T12:42:52.687Z,30
2018-03-02T12:45:49.591Z,29.9
2018-03-02T12:48:46.614Z,29.8
2018-03-02T12:51:43.560Z,29.8
2018-03-02T12:54:40.619Z,29.7
2018-03-02T12:57:37.595Z,29.6
2018-03-02T13:00:34.646Z,29.5
2018-03-02T13:03:31.592Z,29.4
2018-03-02T13:06:28.632Z,29.4
2018-03-02T13:12:22.702Z,29.2
2018-03-02T13:15:20.025Z,29.2
2018-03-02T13:18:16.676Z,29.1
2018-03-02T13:21:13.644Z,29.1
2018-03-02T13:24:10.673Z,29
2018-03-02T13:27:07.649Z,29
2018-03-02T13:30:04.653Z,29
2018-03-02T13:33:01.620Z,28.9
2018-03-02T13:35:58.771Z,28.8
2018-03-02T13:38:55.662Z,28.8
2018-03-02T13:41:53.143Z,28.8
2018-03-02T13:50:43.715Z,28.7
2018-03-02T13:53:40.693Z,28.6
2018-03-02T13:59:34.710Z,28.6
2018-03-02T14:05:28.897Z,28.5
2018-03-02T14:08:25.698Z,28.5
2018-03-02T14:14:19.815Z,28.4
2018-03-02T14:17:16.720Z,28.4
2018-03-02T14:20:13.782Z,28.4
2018-03-02T14:23:10.732Z,28.3
2018-03-02T14:26:07.778Z,28.3
2018-03-02T14:29:04.700Z,28.3
2018-03-02T14:32:01.775Z,28.2
2018-03-02T14:34:58.743Z,28.2
2018-03-02T14:37:55.790Z,28.2
2018-03-02T14:40:52.784Z,28.2
2018-03-02T14:43:49.809Z,28.2
2018-03-02T14:49:43.762Z,28.2
2018-03-02T14:52:40.779Z,28.2
2018-03-02T15:01:31.814Z,28.2
2018-03-02T15:04:28.844Z,28.2
2018-03-02T15:07:26.250Z,28.2
2018-03-02T15:10:22.820Z,28.2
2018-03-02T15:13:19.913Z,28.2
2018-03-02T15:16:16.782Z,28.2
2018-03-02T15:22:10.841Z,28.3
2018-03-02T15:25:07.798Z,28.2
2018-03-02T15:31:01.875Z,28.2
2018-03-02T15:33:58.850Z,28.2
2018-03-02T15:36:55.840Z,28.2
2018-03-02T15:42:50.459Z,28.2
2018-03-02T15:45:46.864Z,28.2
2018-03-02T15:48:43.872Z,28.2
2018-03-02T15:51:40.813Z,28.1
2018-03-02T16:00:31.885Z,28.1
2018-03-02T16:03:28.869Z,28.1
2018-03-02T16:06:25.912Z,28.1
2018-03-02T16:09:22.912Z,28
2018-03-02T16:12:20.078Z,28
2018-03-02T16:15:16.914Z,28
2018-03-02T16:18:13.941Z,28
2018-03-02T16:21:10.884Z,28
2018-03-02T16:24:07.903Z,28
2018-03-02T16:30:01.944Z,27.9
2018-03-02T16:32:58.913Z,27.8
2018-03-02T16:38:52.925Z,27.9
2018-03-02T16:41:50.090Z,27.8
2018-03-02T16:44:47.356Z,27.8
2018-03-02T16:47:43.946Z,27.7
2018-03-02T16:50:40.926Z,27.7
2018-03-02T16:53:37.932Z,27.7
2018-03-02T16:56:35.070Z,27.6
2018-03-02T16:59:31.999Z,27.7
2018-03-02T17:02:29.414Z,27.6
2018-03-02T17:05:25.964Z,27.6
2018-03-02T17:11:20.636Z,27.6
2018-03-02T17:14:17.389Z,27.6
2018-03-02T17:17:14.001Z,27.6
2018-03-02T17:20:11.000Z,27.6
2018-03-02T17:23:08.007Z,27.6
2018-03-02T17:26:05.022Z,27.6
2018-03-02T17:29:02.030Z,27.6
2018-03-02T17:31:59.500Z,27.6
2018-03-02T17:34:56.030Z,27.5
2018-03-02T17:37:52.994Z,27.5
2018-03-02T17:40:50.219Z,27.5
2018-03-02T17:43:47.003Z,27.5
2018-03-02T17:46:44.049Z,27.5
2018-03-02T17:52:38.068Z,27.4
2018-03-02T17:55:35.041Z,27.4
2018-03-02T17:58:32.104Z,27.4
2018-03-02T18:01:29.031Z,27.4
2018-03-02T18:04:26.466Z,27.4
2018-03-02T18:07:23.076Z,27.4
2018-03-02T18:10:20.271Z,27.4
2018-03-02T18:13:17.427Z,27.4
2018-03-02T18:22:08.126Z,27.3
2018-03-02T18:25:05.090Z,27.3
2018-03-02T18:28:02.104Z,27.3
2018-03-02T18:30:59.084Z,27.2
2018-03-02T18:33:56.141Z,27.2
2018-03-02T18:36:53.156Z,27.2
2018-03-02T18:39:50.196Z,27.2
2018-03-02T18:42:47.486Z,27.2
2018-03-02T18:45:44.130Z,27.2
2018-03-02T18:48:41.088Z,27.2
2018-03-02T18:51:38.185Z,27.2
2018-03-02T18:54:35.084Z,27.2
2018-03-02T19:00:29.122Z,27.1
2018-03-02T19:06:23.153Z,27.1
2018-03-02T19:09:20.503Z,27.1
2018-03-02T19:12:17.218Z,27.1
2018-03-02T19:15:14.121Z,27
2018-03-02T19:18:11.160Z,27
2018-03-02T19:21:08.116Z,27
2018-03-02T19:24:05.168Z,27
2018-03-02T19:27:02.119Z,27
2018-03-02T19:29:59.234Z,27
2018-03-02T19:32:56.195Z,27
2018-03-02T19:35:53.258Z,27
2018-03-02T19:38:50.592Z,26.9
2018-03-02T19:41:47.409Z,26.9
2018-03-02T19:44:44.746Z,26.9
2018-03-02T19:47:41.206Z,26.9
2018-03-02T19:50:38.196Z,26.9
2018-03-02T19:53:35.243Z,26.9
2018-03-02T19:56:32.195Z,26.8
2018-03-02T19:59:29.285Z,26.8
2018-03-02T20:05:23.390Z,26.8
2018-03-02T20:11:17.222Z,26.8
2018-03-02T20:17:11.328Z,26.7
2018-03-02T20:23:05.280Z,26.7
2018-03-02T20:28:59.560Z,26.7
2018-03-02T20:31:56.254Z,26.7
2018-03-02T20:34:53.292Z,26.7
2018-03-02T20:37:50.247Z,26.6
2018-03-02T20:40:47.818Z,26.6
2018-03-02T20:43:44.650Z,26.6
2018-03-02T20:49:38.320Z,26.6
2018-03-02T20:55:32.335Z,26.6
2018-03-02T20:58:29.294Z,26.6
2018-03-02T21:01:26.323Z,26.6
2018-03-02T21:04:23.674Z,26.5
2018-03-02T21:07:20.481Z,26.6
2018-03-02T21:10:17.290Z,26.6
2018-03-02T21:13:14.510Z,26.6
2018-03-02T21:22:05.350Z,26.6
2018-03-02T21:25:02.290Z,26.5
2018-03-02T21:27:59.355Z,26.5
2018-03-02T21:30:56.319Z,26.5
2018-03-02T21:36:50.737Z,26.6
2018-03-02T21:39:47.502Z,26.5
2018-03-02T21:51:35.814Z,26.5
2018-03-02T21:54:32.391Z,26.4
2018-03-02T21:57:29.406Z,26.5
2018-03-02T22:00:26.354Z,26.4
2018-03-02T22:03:23.801Z,26.4
2018-03-02T22:09:17.504Z,26.4
2018-03-02T22:12:14.410Z,26.4
2018-03-02T22:15:11.392Z,26.4
2018-03-02T22:18:08.551Z,26.4
2018-03-02T22:21:05.448Z,26.4
2018-03-02T22:24:02.432Z,26.4
2018-03-02T22:26:59.436Z,26.4
2018-03-02T22:29:56.382Z,26.4
2018-03-02T22:32:53.438Z,26.4
2018-03-02T22:35:50.392Z,26.5
2018-03-02T22:38:47.439Z,26.5
2018-03-02T22:44:41.509Z,26.5
2018-03-02T22:47:38.460Z,26.5
2018-03-02T22:50:35.486Z,26.5
2018-03-02T22:53:32.448Z,26.6
2018-03-02T22:56:29.442Z,26.6
2018-03-02T22:59:26.836Z,26.6
2018-03-02T23:02:23.928Z,26.6
2018-03-02T23:05:20.679Z,26.6
2018-03-02T23:08:17.477Z,26.6
2018-03-02T23:11:14.462Z,26.6
2018-03-02T23:14:11.516Z,26.6
2018-03-02T23:17:08.591Z,26.7
2018-03-02T23:20:05.499Z,26.7
2018-03-02T23:28:56.899Z,26.7
2018-03-02T23:31:54.186Z,26.6
2018-03-02T23:40:44.669Z,26.6
2018-03-02T23:43:41.618Z,26.6
2018-03-02T23:46:38.615Z,26.6
2018-03-02T23:49:35.591Z,26.6
2018-03-02T23:52:32.601Z,26.6
2018-03-02T23:58:27.214Z,26.6
